BOE77UK VVDN-VTBS
Flight info
| Callsign | BOE77UK |
|---|---|
| Flight time | 1h 17m |
| Altitude | 40000 |
| Route | TANNA A1 UBL Y20 GRASO Y13 RUKSA EASTE1C |
| Aircraft | B772/H-SDE2E3FGHIJ5LORVWXY/LB1D1 |
Departure
| Time | 2026-05-04 08:28 |
|---|---|
| Airport | Da Nang International Airport (VVDN) |
Arrival
| Time | 2026-05-04 09:46 |
|---|---|
| Airport | Suvarnabhumi Airport (VTBS) |
| Time | Latitude | Longitude | Altitude | Speed | Heading |
|---|---|---|---|---|---|
| 2026-05-04 08:12 | 16.05691 | 108.20126 | 39 ft | 0 kts | 82° |
| 2026-05-04 08:20 | 16.05688 | 108.20103 | 39 ft | 4 kts | 87° |
| 2026-05-04 08:20 | 16.05689 | 108.20076 | 39 ft | 4 kts | 103° |
| 2026-05-04 08:20 | 16.05699 | 108.20053 | 38 ft | 4 kts | 151° |
| 2026-05-04 08:21 | 16.05707 | 108.20050 | 39 ft | 0 kts | 172° |
| 2026-05-04 08:24 | 16.04904 | 108.20107 | 38 ft | 23 kts | 172° |
| 2026-05-04 08:24 | 16.04743 | 108.20132 | 38 ft | 23 kts | 172° |
| 2026-05-04 08:24 | 16.04581 | 108.20155 | 38 ft | 23 kts | 172° |
| 2026-05-04 08:24 | 16.04420 | 108.20179 | 38 ft | 23 kts | 172° |
| 2026-05-04 08:25 | 16.04259 | 108.20202 | 38 ft | 23 kts | 172° |
| 2026-05-04 08:25 | 16.04098 | 108.20226 | 39 ft | 23 kts | 172° |
| 2026-05-04 08:25 | 16.03936 | 108.20248 | 39 ft | 23 kts | 172° |
| 2026-05-04 08:25 | 16.03775 | 108.20272 | 39 ft | 23 kts | 172° |
| 2026-05-04 08:26 | 16.03614 | 108.20295 | 39 ft | 23 kts | 172° |
| 2026-05-04 08:27 | 16.03017 | 108.20240 | 35 ft | 20 kts | 352° |
| 2026-05-04 08:28 | 16.03439 | 108.20180 | 37 ft | 103 kts | 352° |
| 2026-05-04 08:28 | 16.04383 | 108.20044 | 182 ft | 157 kts | 353° |
| 2026-05-04 08:28 | 16.05482 | 108.19843 | 961 ft | 167 kts | 352° |
| 2026-05-04 08:28 | 16.06605 | 108.19620 | 1912 ft | 164 kts | 352° |
| 2026-05-04 08:29 | 16.07773 | 108.19399 | 2546 ft | 182 kts | 355° |
| 2026-05-04 08:29 | 16.09109 | 108.19645 | 2828 ft | 213 kts | 29° |
| 2026-05-04 08:29 | 16.10194 | 108.20787 | 3236 ft | 233 kts | 63° |
| 2026-05-04 08:31 | 16.03993 | 108.27718 | 7895 ft | 287 kts | 204° |
| 2026-05-04 08:33 | 15.99254 | 108.13036 | 12233 ft | 351 kts | 259° |
| 2026-05-04 08:33 | 15.98793 | 108.10527 | 13189 ft | 354 kts | 259° |
| 2026-05-04 08:35 | 15.95384 | 107.92492 | 18928 ft | 377 kts | 258° |
| 2026-05-04 08:35 | 15.94872 | 107.89809 | 19627 ft | 380 kts | 258° |
| 2026-05-04 08:35 | 15.94355 | 107.87098 | 20321 ft | 384 kts | 258° |
| 2026-05-04 08:35 | 15.93833 | 107.84362 | 20926 ft | 389 kts | 258° |
| 2026-05-04 08:37 | 15.90592 | 107.67425 | 24386 ft | 410 kts | 258° |
| 2026-05-04 08:37 | 15.89959 | 107.64569 | 24942 ft | 412 kts | 253° |
| 2026-05-04 08:37 | 15.89411 | 107.62634 | 25352 ft | 414 kts | 252° |
| 2026-05-04 08:38 | 15.88308 | 107.58818 | 26097 ft | 418 kts | 252° |
| 2026-05-04 08:38 | 15.87741 | 107.56859 | 26478 ft | 421 kts | 252° |
| 2026-05-04 08:38 | 15.86623 | 107.52981 | 27194 ft | 425 kts | 252° |
| 2026-05-04 08:40 | 15.80866 | 107.32847 | 30305 ft | 450 kts | 252° |
| 2026-05-04 08:40 | 15.79970 | 107.29716 | 30739 ft | 453 kts | 252° |
| 2026-05-04 08:40 | 15.79071 | 107.26574 | 31156 ft | 455 kts | 252° |
| 2026-05-04 08:41 | 15.77868 | 107.22376 | 31652 ft | 460 kts | 252° |
| 2026-05-04 08:41 | 15.77248 | 107.20214 | 31892 ft | 462 kts | 252° |
| 2026-05-04 08:41 | 15.76382 | 107.16995 | 32293 ft | 464 kts | 255° |
| 2026-05-04 08:41 | 15.75654 | 107.13722 | 32684 ft | 467 kts | 257° |
| 2026-05-04 08:42 | 15.74956 | 107.10462 | 32979 ft | 471 kts | 257° |
| 2026-05-04 08:42 | 15.74250 | 107.07134 | 33334 ft | 473 kts | 257° |
| 2026-05-04 08:42 | 15.73541 | 107.03793 | 33716 ft | 474 kts | 257° |
| 2026-05-04 08:42 | 15.72824 | 107.00435 | 33959 ft | 478 kts | 257° |
| 2026-05-04 08:43 | 15.72096 | 106.97051 | 34213 ft | 480 kts | 257° |
| 2026-05-04 08:43 | 15.71366 | 106.93679 | 34624 ft | 478 kts | 257° |
| 2026-05-04 08:43 | 15.70638 | 106.90322 | 35085 ft | 475 kts | 257° |
| 2026-05-04 08:43 | 15.69910 | 106.86978 | 35524 ft | 473 kts | 257° |
| 2026-05-04 08:44 | 15.69186 | 106.83654 | 35933 ft | 471 kts | 257° |
| 2026-05-04 08:44 | 15.68463 | 106.80330 | 36323 ft | 470 kts | 257° |
| 2026-05-04 08:46 | 15.63451 | 106.57389 | 38846 ft | 463 kts | 258° |
| 2026-05-04 08:46 | 15.62738 | 106.54135 | 39148 ft | 461 kts | 258° |
| 2026-05-04 08:46 | 15.62026 | 106.50892 | 39466 ft | 459 kts | 257° |
| 2026-05-04 08:46 | 15.61317 | 106.47659 | 39755 ft | 458 kts | 258° |
| 2026-05-04 08:47 | 15.60607 | 106.44425 | 39837 ft | 462 kts | 258° |
| 2026-05-04 08:47 | 15.59182 | 106.37939 | 39882 ft | 463 kts | 258° |
| 2026-05-04 08:48 | 15.57761 | 106.31482 | 39887 ft | 455 kts | 257° |
| 2026-05-04 08:48 | 15.56353 | 106.25098 | 39900 ft | 454 kts | 257° |
| 2026-05-04 08:49 | 15.54943 | 106.18710 | 39890 ft | 453 kts | 257° |
| 2026-05-04 08:50 | 15.50003 | 105.96402 | 39893 ft | 455 kts | 258° |
| 2026-05-04 08:51 | 15.48581 | 105.90005 | 39873 ft | 456 kts | 258° |
| 2026-05-04 08:51 | 15.47156 | 105.83598 | 39874 ft | 456 kts | 258° |
| 2026-05-04 08:52 | 15.45730 | 105.77197 | 39874 ft | 456 kts | 258° |
| 2026-05-04 08:52 | 15.44299 | 105.70786 | 39882 ft | 455 kts | 258° |
| 2026-05-04 08:54 | 15.38462 | 105.45231 | 39883 ft | 455 kts | 257° |
| 2026-05-04 08:55 | 15.36989 | 105.38904 | 39877 ft | 454 kts | 257° |
| 2026-05-04 08:55 | 15.35484 | 105.32498 | 39868 ft | 454 kts | 257° |
| 2026-05-04 09:01 | 15.22769 | 104.65188 | 39865 ft | 456 kts | 265° |
| 2026-05-04 09:01 | 15.22238 | 104.58674 | 39869 ft | 457 kts | 265° |
| 2026-05-04 09:02 | 15.21700 | 104.52112 | 39872 ft | 457 kts | 265° |
| 2026-05-04 09:02 | 15.21160 | 104.45543 | 39863 ft | 457 kts | 265° |
| 2026-05-04 09:03 | 15.20621 | 104.38988 | 39860 ft | 457 kts | 265° |
| 2026-05-04 09:03 | 15.20078 | 104.32436 | 39871 ft | 457 kts | 265° |
| 2026-05-04 09:04 | 15.19530 | 104.25934 | 39873 ft | 456 kts | 265° |
| 2026-05-04 09:04 | 15.18975 | 104.19375 | 39857 ft | 456 kts | 265° |
| 2026-05-04 09:05 | 15.18421 | 104.12834 | 39864 ft | 456 kts | 265° |
| 2026-05-04 09:05 | 15.17864 | 104.06281 | 39863 ft | 456 kts | 265° |
| 2026-05-04 09:06 | 15.17306 | 103.99738 | 39868 ft | 456 kts | 265° |
| 2026-05-04 09:08 | 15.13985 | 103.73753 | 39868 ft | 458 kts | 252° |
| 2026-05-04 09:08 | 15.11925 | 103.67520 | 39869 ft | 458 kts | 252° |
| 2026-05-04 09:09 | 15.09867 | 103.61276 | 39867 ft | 459 kts | 252° |
| 2026-05-04 09:09 | 15.07825 | 103.55010 | 39864 ft | 459 kts | 252° |
| 2026-05-04 09:10 | 15.05794 | 103.48750 | 39861 ft | 459 kts | 252° |
| 2026-05-04 09:10 | 15.03761 | 103.42487 | 39861 ft | 458 kts | 252° |
| 2026-05-04 09:11 | 15.01729 | 103.36235 | 39861 ft | 458 kts | 252° |
| 2026-05-04 09:11 | 14.99700 | 103.30000 | 39859 ft | 457 kts | 252° |
| 2026-05-04 09:12 | 14.97684 | 103.23813 | 39859 ft | 456 kts | 252° |
| 2026-05-04 09:14 | 14.89581 | 102.99003 | 39865 ft | 454 kts | 252° |
| 2026-05-04 09:14 | 14.87571 | 102.92862 | 39869 ft | 453 kts | 252° |
| 2026-05-04 09:15 | 14.85580 | 102.86675 | 39874 ft | 453 kts | 253° |
| 2026-05-04 09:15 | 14.83685 | 102.80460 | 39867 ft | 453 kts | 253° |
| 2026-05-04 09:17 | 14.75235 | 102.52871 | 38134 ft | 439 kts | 253° |
| 2026-05-04 09:18 | 14.74315 | 102.49876 | 37668 ft | 434 kts | 253° |
| 2026-05-04 09:18 | 14.73405 | 102.46920 | 37228 ft | 430 kts | 253° |
| 2026-05-04 09:18 | 14.72502 | 102.43991 | 36795 ft | 425 kts | 253° |
| 2026-05-04 09:18 | 14.71607 | 102.41094 | 36372 ft | 421 kts | 253° |
| 2026-05-04 09:19 | 14.70722 | 102.38228 | 35949 ft | 417 kts | 253° |
| 2026-05-04 09:19 | 14.69857 | 102.35426 | 35558 ft | 414 kts | 253° |
| 2026-05-04 09:19 | 14.68984 | 102.32599 | 35117 ft | 413 kts | 253° |
| 2026-05-04 09:19 | 14.68112 | 102.29778 | 34675 ft | 411 kts | 253° |
| 2026-05-04 09:20 | 14.67244 | 102.26972 | 34244 ft | 408 kts | 253° |
| 2026-05-04 09:20 | 14.66380 | 102.24179 | 33804 ft | 407 kts | 253° |
| 2026-05-04 09:20 | 14.65520 | 102.21399 | 33317 ft | 404 kts | 253° |
| 2026-05-04 09:20 | 14.64667 | 102.18645 | 32872 ft | 400 kts | 253° |
| 2026-05-04 09:21 | 14.63823 | 102.15920 | 32447 ft | 397 kts | 253° |
| 2026-05-04 09:21 | 14.62986 | 102.13219 | 32033 ft | 393 kts | 253° |
| 2026-05-04 09:21 | 14.62166 | 102.10573 | 31637 ft | 390 kts | 252° |
| 2026-05-04 09:21 | 14.61339 | 102.07906 | 31202 ft | 388 kts | 252° |
| 2026-05-04 09:22 | 14.60518 | 102.05259 | 30804 ft | 386 kts | 252° |
| 2026-05-04 09:22 | 14.59699 | 102.02621 | 30393 ft | 384 kts | 252° |
| 2026-05-04 09:22 | 14.58884 | 101.99995 | 29980 ft | 383 kts | 252° |
| 2026-05-04 09:22 | 14.58070 | 101.97376 | 29501 ft | 382 kts | 252° |
| 2026-05-04 09:23 | 14.57260 | 101.94770 | 29040 ft | 380 kts | 252° |
| 2026-05-04 09:23 | 14.56466 | 101.92221 | 28694 ft | 376 kts | 251° |
| 2026-05-04 09:23 | 14.55582 | 101.89697 | 28328 ft | 372 kts | 248° |
| 2026-05-04 09:23 | 14.54601 | 101.87226 | 27929 ft | 371 kts | 247° |
| 2026-05-04 09:25 | 14.47957 | 101.70907 | 25238 ft | 370 kts | 248° |
| 2026-05-04 09:25 | 14.46650 | 101.67649 | 24709 ft | 371 kts | 248° |
| 2026-05-04 09:26 | 14.45613 | 101.65214 | 24346 ft | 365 kts | 244° |
| 2026-05-04 09:26 | 14.44859 | 101.63693 | 23930 ft | 355 kts | 242° |
| 2026-05-04 09:26 | 14.43696 | 101.61460 | 22930 ft | 351 kts | 242° |
| 2026-05-04 09:26 | 14.42525 | 101.59258 | 21817 ft | 349 kts | 242° |
| 2026-05-04 09:27 | 14.41361 | 101.57069 | 20804 ft | 346 kts | 242° |
| 2026-05-04 09:27 | 14.40216 | 101.54903 | 19874 ft | 340 kts | 242° |
| 2026-05-04 09:27 | 14.39095 | 101.52771 | 18975 ft | 335 kts | 242° |
| 2026-05-04 09:27 | 14.37994 | 101.50668 | 18090 ft | 331 kts | 242° |
| 2026-05-04 09:28 | 14.36921 | 101.48612 | 17108 ft | 327 kts | 242° |
| 2026-05-04 09:28 | 14.35851 | 101.46558 | 16192 ft | 322 kts | 242° |
| 2026-05-04 09:28 | 14.34829 | 101.44596 | 15852 ft | 300 kts | 242° |
| 2026-05-04 09:28 | 14.33853 | 101.42722 | 15540 ft | 297 kts | 242° |
| 2026-05-04 09:29 | 14.32872 | 101.40838 | 15191 ft | 298 kts | 242° |
| 2026-05-04 09:29 | 14.31894 | 101.38957 | 14862 ft | 297 kts | 242° |
| 2026-05-04 09:29 | 14.30918 | 101.37082 | 14515 ft | 297 kts | 242° |
| 2026-05-04 09:29 | 14.29944 | 101.35210 | 14216 ft | 295 kts | 242° |
| 2026-05-04 09:30 | 14.28990 | 101.33380 | 13909 ft | 290 kts | 242° |
| 2026-05-04 09:30 | 14.28032 | 101.31541 | 13514 ft | 292 kts | 242° |
| 2026-05-04 09:30 | 14.27072 | 101.29698 | 13188 ft | 290 kts | 242° |
| 2026-05-04 09:30 | 14.26123 | 101.27876 | 12904 ft | 285 kts | 242° |
| 2026-05-04 09:31 | 14.25212 | 101.26128 | 12458 ft | 270 kts | 242° |
| 2026-05-04 09:31 | 14.24331 | 101.24439 | 11817 ft | 267 kts | 242° |
| 2026-05-04 09:31 | 14.23442 | 101.22733 | 11427 ft | 269 kts | 241° |
| 2026-05-04 09:31 | 14.22559 | 101.21040 | 11185 ft | 266 kts | 241° |
| 2026-05-04 09:32 | 14.21692 | 101.19377 | 11007 ft | 261 kts | 241° |
| 2026-05-04 09:32 | 14.20835 | 101.17735 | 10738 ft | 260 kts | 241° |
| 2026-05-04 09:34 | 14.14852 | 101.06278 | 8737 ft | 255 kts | 240° |
| 2026-05-04 09:34 | 14.14035 | 101.04712 | 8730 ft | 241 kts | 240° |
| 2026-05-04 09:34 | 14.13250 | 101.03213 | 8650 ft | 241 kts | 240° |
| 2026-05-04 09:34 | 14.12446 | 101.01674 | 8366 ft | 245 kts | 240° |
| 2026-05-04 09:35 | 14.11652 | 101.00159 | 8080 ft | 243 kts | 240° |
| 2026-05-04 09:35 | 14.10845 | 100.98615 | 7808 ft | 241 kts | 240° |
| 2026-05-04 09:35 | 14.10064 | 100.97121 | 7554 ft | 239 kts | 239° |
| 2026-05-04 09:35 | 14.09278 | 100.95618 | 7294 ft | 237 kts | 240° |
| 2026-05-04 09:37 | 14.03994 | 100.85526 | 5731 ft | 212 kts | 240° |
| 2026-05-04 09:37 | 14.03321 | 100.84241 | 5637 ft | 201 kts | 240° |
| 2026-05-04 09:38 | 14.02658 | 100.82993 | 5537 ft | 199 kts | 234° |
| 2026-05-04 09:38 | 14.01636 | 100.82108 | 5335 ft | 190 kts | 192° |
| 2026-05-04 09:38 | 14.00359 | 100.81839 | 5207 ft | 191 kts | 191° |
| 2026-05-04 09:38 | 13.99064 | 100.81502 | 5005 ft | 191 kts | 191° |
| 2026-05-04 09:39 | 13.97794 | 100.81163 | 4791 ft | 186 kts | 193° |
| 2026-05-04 09:39 | 13.96560 | 100.80834 | 4585 ft | 180 kts | 192° |
| 2026-05-04 09:39 | 13.95372 | 100.80518 | 4371 ft | 175 kts | 192° |
| 2026-05-04 09:39 | 13.94178 | 100.80204 | 4204 ft | 178 kts | 192° |
| 2026-05-04 09:40 | 13.92999 | 100.79894 | 4093 ft | 172 kts | 193° |
| 2026-05-04 09:40 | 13.91861 | 100.79593 | 4005 ft | 167 kts | 193° |
| 2026-05-04 09:40 | 13.90730 | 100.79295 | 3923 ft | 173 kts | 193° |
| 2026-05-04 09:40 | 13.89564 | 100.78986 | 3734 ft | 174 kts | 192° |
| 2026-05-04 09:41 | 13.88380 | 100.78676 | 3575 ft | 176 kts | 192° |
| 2026-05-04 09:42 | 13.80482 | 100.76598 | 2177 ft | 161 kts | 195° |
| 2026-05-04 09:43 | 13.79387 | 100.76309 | 1931 ft | 160 kts | 194° |
| 2026-05-04 09:43 | 13.78361 | 100.76040 | 1748 ft | 147 kts | 195° |
| 2026-05-04 09:43 | 13.77412 | 100.75790 | 1524 ft | 136 kts | 194° |
| 2026-05-04 09:43 | 13.76512 | 100.75553 | 1406 ft | 131 kts | 194° |
| 2026-05-04 09:44 | 13.75624 | 100.75319 | 1215 ft | 133 kts | 195° |
| 2026-05-04 09:44 | 13.74744 | 100.75087 | 1056 ft | 130 kts | 193° |
| 2026-05-04 09:44 | 13.73847 | 100.74852 | 863 ft | 134 kts | 194° |
| 2026-05-04 09:46 | 13.67977 | 100.73344 | 22 ft | 43 kts | 169° |
| 2026-05-04 09:46 | 13.67821 | 100.73397 | 19 ft | 14 kts | 165° |
| 2026-05-04 09:46 | 13.67731 | 100.73419 | 19 ft | 13 kts | 172° |
| 2026-05-04 09:47 | 13.67638 | 100.73419 | 19 ft | 16 kts | 170° |
| 2026-05-04 09:47 | 13.67576 | 100.73518 | 19 ft | 18 kts | 102° |
| 2026-05-04 09:49 | 13.68227 | 100.73947 | 18 ft | 22 kts | 14° |
| 2026-05-04 09:49 | 13.68373 | 100.73984 | 18 ft | 22 kts | 14° |
| 2026-05-04 09:49 | 13.68518 | 100.74022 | 18 ft | 22 kts | 14° |
| 2026-05-04 09:51 | 13.68578 | 100.74630 | 18 ft | 10 kts | 85° |
| 2026-05-04 09:51 | 13.68660 | 100.74690 | 18 ft | 17 kts | 13° |
| 2026-05-04 09:51 | 13.68775 | 100.74719 | 18 ft | 17 kts | 14° |
| 2026-05-04 09:51 | 13.68871 | 100.74745 | 18 ft | 12 kts | 15° |
| 2026-05-04 09:52 | 13.68939 | 100.74738 | 18 ft | 9 kts | 313° |
| 2026-05-04 09:52 | 13.68953 | 100.74694 | 18 ft | 0 kts | 284° |
| 2026-05-04 09:52 | 13.68955 | 100.74683 | 18 ft | 0 kts | 284° |